Time;durP1;ratioP1;P1;durP2;ratioP2;P2;SDS_P1;SDS_P2;PMS_P1;PMS_P2;Temp;Humidity;BMP_temperature;BMP_pressure;BME280_temperature;BME280_humidity;BME280_pressure;Samples;Min_cycle;Max_cycle;Signal;HPM_P1;HPM_P2
2021/03/01 00:00:55;;;;;;;34.72;21.58;;;;;;;;;;5096518;28;20036;-75
2021/03/01 00:03:21;;;;;;;33.03;20.77;;;;;;;;;;5096783;28;20107;-75
2021/03/01 00:05:46;;;;;;;32.05;21.48;;;;;;;;;;5096776;28;20477;-75
2021/03/01 00:08:12;;;;;;;32.92;21.83;;;;;;;;;;5096229;28;20048;-75
2021/03/01 00:10:37;;;;;;;40.83;22.73;;;;;;;;;;5096382;28;20062;-75
2021/03/01 00:13:02;;;;;;;35.38;22.30;;;;;;;;;;5096243;28;20039;-75
2021/03/01 00:15:28;;;;;;;35.30;21.77;;;;;;;;;;5096269;28;20123;-75
2021/03/01 00:17:53;;;;;;;35.83;22.92;;;;;;;;;;5095645;28;20032;-75
2021/03/01 00:20:19;;;;;;;38.85;22.73;;;;;;;;;;5096293;28;20032;-75
2021/03/01 00:22:45;;;;;;;34.22;21.73;;;;;;;;;;5096285;28;20036;-75
2021/03/01 00:25:12;;;;;;;34.58;22.23;;;;;;;;;;5096167;28;20114;-75
2021/03/01 00:27:38;;;;;;;36.92;22.17;;;;;;;;;;5096330;28;20077;-75
2021/03/01 00:30:06;;;;;;;34.20;21.48;;;;;;;;;;5095821;28;20051;-75
2021/03/01 00:32:32;;;;;;;34.35;21.85;;;;;;;;;;5096070;28;20428;-75
2021/03/01 00:34:57;;;;;;;34.60;21.55;;;;;;;;;;5095821;28;20136;-75
2021/03/01 00:37:22;;;;;;;29.20;19.33;;;;;;;;;;5077519;28;20054;-75
2021/03/01 00:39:48;;;;;;;34.05;21.10;;;;;;;;;;5095836;28;20105;-75
2021/03/01 00:42:13;;;;;;;31.00;19.95;;;;;;;;;;5096266;28;20075;-75
2021/03/01 00:44:40;;;;;;;34.65;21.60;;;;;;;;;;5094488;28;20123;-75
2021/03/01 00:47:06;;;;;;;33.45;20.48;;;;;;;;;;5096039;28;20030;-75
2021/03/01 00:49:32;;;;;;;27.65;18.85;;;;;;;;;;5095614;28;20149;-75
2021/03/01 00:51:57;;;;;;;32.92;21.48;;;;;;;;;;5095310;28;20101;-75
2021/03/01 00:54:23;;;;;;;34.28;20.15;;;;;;;;;;5093326;28;20039;-75
2021/03/01 00:56:51;;;;;;;32.38;20.60;;;;;;;;;;5095468;28;20035;-75
2021/03/01 00:59:18;;;;;;;39.88;21.23;;;;;;;;;;5094588;28;20043;-75
2021/03/01 01:01:53;;;;;;;35.75;21.23;;;;;;;;;;5076828;28;20032;-75
2021/03/01 01:04:19;;;;;;;36.13;21.35;;;;;;;;;;5093954;28;20040;-75
2021/03/01 01:06:44;;;;;;;34.15;21.40;;;;;;;;;;5095409;28;20075;-75
2021/03/01 01:09:10;;;;;;;30.20;19.13;;;;;;;;;;5095608;28;20060;-75
2021/03/01 01:11:35;;;;;;;35.63;21.38;;;;;;;;;;5077296;28;20408;-75
2021/03/01 01:14:01;;;;;;;30.48;19.77;;;;;;;;;;5095403;28;20036;-75
2021/03/01 01:16:26;;;;;;;33.47;20.30;;;;;;;;;;5095360;28;20093;-75
2021/03/01 01:18:51;;;;;;;35.67;20.50;;;;;;;;;;5095368;28;20036;-75
2021/03/01 01:21:17;;;;;;;33.80;20.70;;;;;;;;;;5095242;28;20035;-75
2021/03/01 01:23:42;;;;;;;35.47;21.48;;;;;;;;;;5094788;28;20036;-75
2021/03/01 01:26:07;;;;;;;32.92;20.92;;;;;;;;;;5077144;28;20051;-75
2021/03/01 01:28:33;;;;;;;34.03;20.73;;;;;;;;;;5094165;28;20078;-75
2021/03/01 01:30:58;;;;;;;37.80;20.88;;;;;;;;;;5094992;28;20039;-75
2021/03/01 01:33:24;;;;;;;29.20;18.98;;;;;;;;;;5094982;28;20036;-75
2021/03/01 01:35:49;;;;;;;29.50;18.65;;;;;;;;;;5094456;28;20044;-75
2021/03/01 01:38:15;;;;;;;31.15;20.77;;;;;;;;;;5094792;28;20036;-75
2021/03/01 01:40:40;;;;;;;33.20;20.15;;;;;;;;;;5094409;28;20156;-75
2021/03/01 01:43:05;;;;;;;32.42;19.40;;;;;;;;;;5095098;28;20054;-75
2021/03/01 01:45:31;;;;;;;31.65;19.85;;;;;;;;;;5094903;28;20085;-75
2021/03/01 01:47:57;;;;;;;30.67;20.45;;;;;;;;;;5093823;28;20040;-75
2021/03/01 01:50:25;;;;;;;31.98;21.67;;;;;;;;;;5094574;28;20068;-75
2021/03/01 01:52:52;;;;;;;35.67;19.38;;;;;;;;;;5076384;28;20024;-75
2021/03/01 01:55:18;;;;;;;33.28;20.60;;;;;;;;;;5094248;28;20382;-75
2021/03/01 01:57:44;;;;;;;43.67;22.35;;;;;;;;;;5094523;28;20094;-75
2021/03/01 02:00:41;;;;;;;33.88;22.55;;;;;;;;;;5094568;28;20039;-75
2021/03/01 02:03:28;;;;;;;34.08;20.52;;;;;;;;;;5094445;28;20036;-75
2021/03/01 02:06:12;;;;;;;30.60;20.70;;;;;;;;;;5094006;28;20044;-75
2021/03/01 02:09:02;;;;;;;31.40;19.92;;;;;;;;;;5093860;28;20549;-75
2021/03/01 02:11:40;;;;;;;33.53;20.77;;;;;;;;;;5094087;28;20101;-75
2021/03/01 02:14:16;;;;;;;34.25;20.48;;;;;;;;;;5092574;28;20036;-75
2021/03/01 02:16:41;;;;;;;;;;;;;;;;;;5094517;28;20043;-75
2021/03/01 02:19:07;;;;;;;32.17;19.33;;;;;;;;;;5094402;28;19969;-75
2021/03/01 02:21:42;;;;;;;35.10;20.88;;;;;;;;;;5094004;28;20036;-75
2021/03/01 02:24:08;;;;;;;34.35;18.48;;;;;;;;;;5093063;28;20074;-75
2021/03/01 02:26:34;;;;;;;32.30;18.35;;;;;;;;;;5094053;28;20055;-75
2021/03/01 02:29:07;;;;;;;31.88;19.42;;;;;;;;;;5093939;28;20489;-75
2021/03/01 02:31:36;;;;;;;30.50;17.80;;;;;;;;;;5093858;28;20063;-75
2021/03/01 02:34:05;;;;;;;30.77;19.13;;;;;;;;;;5093921;28;20351;-75
2021/03/01 02:36:40;;;;;;;32.03;18.55;;;;;;;;;;5093663;28;20040;-75
2021/03/01 02:39:07;;;;;;;28.58;17.73;;;;;;;;;;5093930;28;20035;-75
2021/03/01 02:41:34;;;;;;;32.45;18.42;;;;;;;;;;5093786;28;20039;-75
2021/03/01 02:44:00;;;;;;;32.42;18.67;;;;;;;;;;5093501;28;20040;-75
2021/03/01 02:46:25;;;;;;;30.85;17.40;;;;;;;;;;5075529;28;20047;-75
2021/03/01 02:48:52;;;;;;;28.42;17.30;;;;;;;;;;5093294;28;20681;-75
2021/03/01 02:51:20;;;;;;;25.80;16.27;;;;;;;;;;5093244;28;20036;-75
2021/03/01 02:53:45;;;;;;;28.67;15.63;;;;;;;;;;5093543;28;20042;-75
2021/03/01 02:56:15;;;;;;;23.75;14.48;;;;;;;;;;5093698;28;20040;-75
2021/03/01 02:58:42;;;;;;;23.52;14.52;;;;;;;;;;5093496;28;20043;-75
2021/03/01 03:01:09;;;;;;;21.27;14.40;;;;;;;;;;5093018;28;20040;-75
2021/03/01 03:03:36;;;;;;;23.02;13.25;;;;;;;;;;5057775;28;20047;-75
2021/03/01 03:06:03;;;;;;;16.98;11.90;;;;;;;;;;5073129;28;20474;-75
2021/03/01 03:08:31;;;;;;;18.27;10.88;;;;;;;;;;5072777;28;20040;-75
2021/03/01 03:10:58;;;;;;;19.75;12.38;;;;;;;;;;5073292;28;20047;-75
2021/03/01 03:13:24;;;;;;;17.75;11.07;;;;;;;;;;5073100;28;20055;-74
2021/03/01 03:15:53;;;;;;;19.20;12.25;;;;;;;;;;5073046;28;20037;-75
2021/03/01 03:18:19;;;;;;;18.27;11.95;;;;;;;;;;5074182;28;20044;-75
2021/03/01 03:20:45;;;;;;;17.73;10.90;;;;;;;;;;5077153;28;20036;-74
2021/03/01 03:23:11;;;;;;;20.90;12.27;;;;;;;;;;5077141;28;20105;-74
2021/03/01 03:25:37;;;;;;;19.15;11.98;;;;;;;;;;5077127;28;20516;-74
2021/03/01 03:28:04;;;;;;;25.08;14.40;;;;;;;;;;5086039;28;20020;-73
2021/03/01 03:30:30;;;;;;;25.70;15.45;;;;;;;;;;5097145;28;20035;-74
2021/03/01 03:32:55;;;;;;;27.33;16.02;;;;;;;;;;5097297;28;20036;-74
2021/03/01 03:35:22;;;;;;;24.48;15.00;;;;;;;;;;5097105;28;20043;-74
2021/03/01 03:38:05;;;;;;;27.80;16.48;;;;;;;;;;5096855;28;20056;-74
2021/03/01 03:40:33;;;;;;;27.05;16.73;;;;;;;;;;5097008;28;20489;-74
2021/03/01 03:43:00;;;;;;;28.50;16.50;;;;;;;;;;5096778;28;20036;-75
2021/03/01 03:45:26;;;;;;;27.63;16.30;;;;;;;;;;5078832;28;20672;-75
2021/03/01 03:47:55;;;;;;;24.75;15.80;;;;;;;;;;5096917;28;20035;-74
2021/03/01 03:50:22;;;;;;;26.27;14.65;;;;;;;;;;5095288;28;20040;-76
2021/03/01 03:52:52;;;;;;;24.02;15.13;;;;;;;;;;5097216;28;20088;-76
2021/03/01 03:55:20;;;;;;;25.35;15.45;;;;;;;;;;5096619;28;20047;-74
2021/03/01 03:57:51;;;;;;;23.13;14.82;;;;;;;;;;5096496;28;20071;-75
2021/03/01 04:00:18;;;;;;;23.02;13.90;;;;;;;;;;5096665;28;20028;-75
2021/03/01 04:02:44;;;;;;;25.38;14.82;;;;;;;;;;5096484;28;20043;-75
2021/03/01 04:05:14;;;;;;;23.20;14.13;;;;;;;;;;5096803;28;20032;-75
2021/03/01 04:07:43;;;;;;;21.02;12.70;;;;;;;;;;5096520;28;20485;-76
2021/03/01 04:10:09;;;;;;;24.10;13.43;;;;;;;;;;5096283;28;20085;-75
2021/03/01 04:12:36;;;;;;;20.75;12.32;;;;;;;;;;5078415;28;20420;-76
2021/03/01 04:15:05;;;;;;;19.05;11.88;;;;;;;;;;5096062;28;20032;-76
2021/03/01 04:17:34;;;;;;;21.27;12.02;;;;;;;;;;5096480;28;20031;-76
2021/03/01 04:19:59;;;;;;;19.95;12.50;;;;;;;;;;5077500;28;20028;-76
2021/03/01 04:22:26;;;;;;;20.90;11.45;;;;;;;;;;5096137;28;20038;-76
2021/03/01 04:24:54;;;;;;;16.98;11.23;;;;;;;;;;5096474;28;20122;-76
2021/03/01 04:27:19;;;;;;;15.85;10.63;;;;;;;;;;5096333;28;20035;-76
2021/03/01 04:29:45;;;;;;;17.30;11.60;;;;;;;;;;5095926;28;20473;-75
2021/03/01 04:32:11;;;;;;;17.60;11.05;;;;;;;;;;5096126;28;20067;-76
2021/03/01 04:34:37;;;;;;;16.85;11.40;;;;;;;;;;5078156;28;20024;-75
2021/03/01 04:37:03;;;;;;;18.92;11.18;;;;;;;;;;5095994;28;20095;-75
2021/03/01 04:39:29;;;;;;;17.77;10.93;;;;;;;;;;5096105;28;20052;-75
2021/03/01 04:41:55;;;;;;;17.83;11.13;;;;;;;;;;5077843;28;20028;-76
2021/03/01 04:44:21;;;;;;;16.63;10.02;;;;;;;;;;5077839;28;20479;-76
2021/03/01 04:46:52;;;;;;;15.27;10.20;;;;;;;;;;5095943;28;20035;-76
2021/03/01 04:49:20;;;;;;;12.57;9.38;;;;;;;;;;5095833;28;20047;-76
2021/03/01 04:51:46;;;;;;;17.02;10.45;;;;;;;;;;5077678;28;20366;-76
2021/03/01 04:54:12;;;;;;;16.77;10.20;;;;;;;;;;5095644;28;20043;-76
2021/03/01 04:56:46;;;;;;;13.07;9.55;;;;;;;;;;5095609;28;20036;-76
2021/03/01 04:59:17;;;;;;;18.48;10.75;;;;;;;;;;5095825;28;20036;-76
2021/03/01 05:01:44;;;;;;;14.55;9.70;;;;;;;;;;5095596;28;20039;-76
2021/03/01 05:04:10;;;;;;;15.52;9.90;;;;;;;;;;5095221;28;20036;-76
2021/03/01 05:06:36;;;;;;;15.02;9.65;;;;;;;;;;5095356;28;20089;-76
2021/03/01 05:09:02;;;;;;;17.55;10.60;;;;;;;;;;5095499;28;20036;-76
2021/03/01 05:11:30;;;;;;;15.77;10.48;;;;;;;;;;5095192;28;20127;-76
2021/03/01 05:13:56;;;;;;;18.02;11.13;;;;;;;;;;5095317;28;20481;-75
2021/03/01 05:16:24;;;;;;;14.90;9.82;;;;;;;;;;5095207;28;20115;-76
2021/03/01 05:18:49;;;;;;;16.70;10.50;;;;;;;;;;5095074;28;20036;-76
2021/03/01 05:21:14;;;;;;;13.05;9.57;;;;;;;;;;5060054;28;20061;-76
2021/03/01 05:23:40;;;;;;;14.80;8.70;;;;;;;;;;5095255;28;20110;-76
2021/03/01 05:26:05;;;;;;;19.92;10.23;;;;;;;;;;5077003;28;20020;-76
2021/03/01 05:28:31;;;;;;;15.85;10.77;;;;;;;;;;5094932;28;20416;-76
2021/03/01 05:30:56;;;;;;;15.88;11.10;;;;;;;;;;5076856;28;20028;-76
2021/03/01 05:33:21;;;;;;;16.92;10.98;;;;;;;;;;5094729;28;20459;-75
2021/03/01 05:35:47;;;;;;;19.52;11.95;;;;;;;;;;5094847;28;20114;-76
2021/03/01 05:38:12;;;;;;;19.98;12.13;;;;;;;;;;5094889;28;20036;-76
2021/03/01 05:40:37;;;;;;;21.90;13.25;;;;;;;;;;5094229;28;20051;-76
2021/03/01 05:43:03;;;;;;;18.92;12.25;;;;;;;;;;5094808;28;20397;-76
2021/03/01 05:45:29;;;;;;;21.30;13.32;;;;;;;;;;5094777;28;20028;-76
2021/03/01 05:47:54;;;;;;;18.25;12.18;;;;;;;;;;5076288;28;20036;-76
2021/03/01 05:50:20;;;;;;;18.08;11.85;;;;;;;;;;5075614;28;20515;-76
2021/03/01 05:52:49;;;;;;;17.05;11.50;;;;;;;;;;5094661;28;20040;-76
2021/03/01 05:55:15;;;;;;;17.45;12.40;;;;;;;;;;5093932;28;20069;-76
2021/03/01 05:57:41;;;;;;;20.27;11.88;;;;;;;;;;5093912;28;20558;-76
2021/03/01 06:00:08;;;;;;;20.48;11.70;;;;;;;;;;5094573;28;20028;-75
2021/03/01 06:02:33;;;;;;;18.23;12.02;;;;;;;;;;5094550;28;20115;-76
2021/03/01 06:05:02;;;;;;;17.33;10.70;;;;;;;;;;5094420;28;20082;-76
2021/03/01 06:07:27;;;;;;;17.52;10.77;;;;;;;;;;5076181;28;20032;-76
2021/03/01 06:09:52;;;;;;;19.30;11.20;;;;;;;;;;5094226;28;20460;-76
2021/03/01 06:12:18;;;;;;;20.48;12.23;;;;;;;;;;5094373;28;20024;-76
2021/03/01 06:14:44;;;;;;;17.38;11.52;;;;;;;;;;5094179;28;20035;-76
2021/03/01 06:17:18;;;;;;;21.42;11.20;;;;;;;;;;5093869;28;20047;-76
2021/03/01 06:19:49;;;;;;;21.92;13.43;;;;;;;;;;5093666;28;20078;-76
2021/03/01 06:22:15;;;;;;;20.08;12.63;;;;;;;;;;5093932;28;20028;-76
2021/03/01 06:24:41;;;;;;;22.73;12.23;;;;;;;;;;5094001;28;20047;-76
2021/03/01 06:27:10;;;;;;;18.85;12.50;;;;;;;;;;5093700;28;20036;-76
2021/03/01 06:30:12;;;;;;;18.80;11.70;;;;;;;;;;5094039;28;20036;-76
2021/03/01 06:32:37;;;;;;;16.20;11.02;;;;;;;;;;5093402;28;20417;-75
2021/03/01 06:35:24;;;;;;;20.50;11.93;;;;;;;;;;5075527;28;20032;-76
2021/03/01 06:38:12;;;;;;;17.50;10.88;;;;;;;;;;5093541;28;20444;-75
2021/03/01 06:40:37;;;;;;;15.80;11.02;;;;;;;;;;5093941;28;20028;-74
2021/03/01 06:43:13;;;;;;;17.83;12.18;;;;;;;;;;5093629;28;20024;-75
2021/03/01 06:45:39;;;;;;;18.30;12.15;;;;;;;;;;5094597;28;20047;-75
2021/03/01 06:48:05;;;;;;;20.65;13.02;;;;;;;;;;5094240;28;20028;-76
2021/03/01 06:50:35;;;;;;;16.83;11.90;;;;;;;;;;5093475;28;20490;-76
2021/03/01 06:53:16;;;;;;;20.75;13.38;;;;;;;;;;5093268;28;20040;-76
2021/03/01 06:56:02;;;;;;;20.92;12.80;;;;;;;;;;5093864;28;20114;-77
2021/03/01 06:58:34;;;;;;;19.48;12.88;;;;;;;;;;5093963;28;20039;-77
2021/03/01 07:01:13;;;;;;;21.70;12.75;;;;;;;;;;5075468;28;20032;-76
2021/03/01 07:03:39;;;;;;;21.65;13.05;;;;;;;;;;5093683;28;20043;-76
2021/03/01 07:06:06;;;;;;;18.35;12.45;;;;;;;;;;5093284;28;20426;-76
2021/03/01 07:08:49;;;;;;;20.63;13.07;;;;;;;;;;5093171;28;20084;-76
2021/03/01 07:11:20;;;;;;;25.30;13.20;;;;;;;;;;5093578;28;20038;-76
2021/03/01 07:13:47;;;;;;;21.95;13.90;;;;;;;;;;5093565;28;20050;-74
2021/03/01 07:16:13;;;;;;;24.38;14.90;;;;;;;;;;5093324;28;20034;-75
2021/03/01 07:18:42;;;;;;;23.95;14.93;;;;;;;;;;5093176;28;20377;-76
2021/03/01 07:21:12;;;;;;;27.17;15.70;;;;;;;;;;5093493;28;20040;-75
2021/03/01 07:23:41;;;;;;;23.70;13.88;;;;;;;;;;5093956;28;20040;-75
2021/03/01 07:26:09;;;;;;;21.13;14.27;;;;;;;;;;5094006;28;20513;-76
2021/03/01 07:28:36;;;;;;;22.58;14.20;;;;;;;;;;5093515;28;20036;-76
2021/03/01 07:31:02;;;;;;;27.80;15.77;;;;;;;;;;5093226;28;20039;-76
2021/03/01 07:33:27;;;;;;;25.23;14.82;;;;;;;;;;5075929;28;20076;-77
2021/03/01 07:35:53;;;;;;;25.23;14.95;;;;;;;;;;5093104;28;20074;-78
2021/03/01 07:38:19;;;;;;;25.75;15.38;;;;;;;;;;5093231;28;20046;-77
2021/03/01 07:40:45;;;;;;;20.77;13.57;;;;;;;;;;5093148;28;20077;-77
2021/03/01 07:43:12;;;;;;;21.27;14.15;;;;;;;;;;5076084;28;20451;-77
2021/03/01 07:45:38;;;;;;;21.10;13.73;;;;;;;;;;5093290;28;20042;-77
2021/03/01 07:48:16;;;;;;;26.70;15.32;;;;;;;;;;5092609;28;20115;-76
2021/03/01 07:50:44;;;;;;;26.17;15.48;;;;;;;;;;5089763;28;20059;-77
2021/03/01 07:53:49;;;;;;;25.13;15.27;;;;;;;;;;5095781;28;20042;-81
2021/03/01 07:56:23;;;;;;;21.67;13.10;;;;;;;;;;5097295;28;20074;-79
2021/03/01 07:58:55;;;;;;;22.25;13.82;;;;;;;;;;5094594;28;20043;-77
2021/03/01 08:01:20;;;;;;;22.55;14.07;;;;;;;;;;5092781;28;20085;-76
2021/03/01 08:03:46;;;;;;;19.17;12.90;;;;;;;;;;5092834;28;20036;-77
2021/03/01 08:06:12;;;;;;;21.95;12.48;;;;;;;;;;5079089;28;20110;-77
2021/03/01 08:08:42;;;;;;;21.70;13.40;;;;;;;;;;5096729;28;20048;-76
2021/03/01 08:11:08;;;;;;;20.38;13.38;;;;;;;;;;5078811;28;20044;-77
2021/03/01 08:13:33;;;;;;;20.27;12.70;;;;;;;;;;5096638;28;20028;-77
2021/03/01 08:16:20;;;;;;;23.77;14.80;;;;;;;;;;5096712;28;20040;-76
2021/03/01 08:18:51;;;;;;;25.33;14.23;;;;;;;;;;5096040;28;20028;-76
2021/03/01 08:21:16;;;;;;;20.80;13.32;;;;;;;;;;5095716;28;20047;-77
2021/03/01 08:23:41;;;;;;;24.67;14.07;;;;;;;;;;5096477;28;20020;-76
2021/03/01 08:26:07;;;;;;;20.67;13.77;;;;;;;;;;5096523;28;20123;-77
2021/03/01 08:28:35;;;;;;;21.88;13.98;;;;;;;;;;5096165;28;20039;-76
2021/03/01 08:31:18;;;;;;;23.05;14.23;;;;;;;;;;5096652;28;20118;-77
2021/03/01 08:33:44;;;;;;;21.80;14.57;;;;;;;;;;5096052;28;20134;-77
2021/03/01 08:36:09;;;;;;;22.48;14.18;;;;;;;;;;5095881;28;20118;-76
2021/03/01 08:38:45;;;;;;;26.48;15.60;;;;;;;;;;5097395;28;20036;-77
2021/03/01 08:41:12;;;;;;;20.55;13.50;;;;;;;;;;5079950;28;20040;-78
2021/03/01 08:43:42;;;;;;;21.13;13.68;;;;;;;;;;5097942;28;20038;-78
2021/03/01 08:46:14;;;;;;;23.52;13.10;;;;;;;;;;5100621;28;20044;-78
2021/03/01 08:48:41;;;;;;;21.73;14.00;;;;;;;;;;5097840;28;20036;-75
2021/03/01 08:51:09;;;;;;;25.40;13.85;;;;;;;;;;5096294;28;20036;-77
2021/03/01 08:53:35;;;;;;;25.73;13.35;;;;;;;;;;5096807;28;20047;-74
2021/03/01 08:56:00;;;;;;;26.10;14.27;;;;;;;;;;5096087;28;20032;-75
2021/03/01 08:58:33;;;;;;;23.80;14.60;;;;;;;;;;5077394;28;20036;-76
2021/03/01 09:01:04;;;;;;;24.42;13.90;;;;;;;;;;5094033;28;20050;-75
2021/03/01 09:03:34;;;;;;;25.88;13.63;;;;;;;;;;5094650;28;20499;-76
2021/03/01 09:06:09;;;;;;;20.63;14.23;;;;;;;;;;5094512;28;20047;-75
2021/03/01 09:08:38;;;;;;;24.10;15.43;;;;;;;;;;5094575;28;20127;-75
2021/03/01 09:11:13;;;;;;;28.08;16.35;;;;;;;;;;5097564;28;20032;-81
2021/03/01 09:13:38;;;;;;;22.55;14.93;;;;;;;;;;5078051;28;20036;-75
2021/03/01 09:16:06;;;;;;;26.83;15.70;;;;;;;;;;5095180;28;20039;-75
2021/03/01 09:18:32;;;;;;;27.88;16.00;;;;;;;;;;5095805;28;20060;-75
2021/03/01 09:20:58;;;;;;;26.98;15.07;;;;;;;;;;5096403;28;20036;-75
2021/03/01 09:23:42;;;;;;;27.33;15.65;;;;;;;;;;5094815;28;20039;-75
2021/03/01 09:26:16;;;;;;;31.25;17.90;;;;;;;;;;5094542;28;20618;-74
2021/03/01 09:28:41;;;;;;;29.88;16.80;;;;;;;;;;5094992;28;20032;-75
2021/03/01 09:31:09;;;;;;;32.47;19.52;;;;;;;;;;5095294;28;20042;-75
2021/03/01 09:33:36;;;;;;;33.65;18.58;;;;;;;;;;5094948;28;20527;-75
2021/03/01 09:36:03;;;;;;;37.80;20.08;;;;;;;;;;5095471;28;20097;-76
2021/03/01 09:38:28;;;;;;;31.10;17.17;;;;;;;;;;5095201;28;20036;-76
2021/03/01 09:40:59;;;;;;;28.80;17.40;;;;;;;;;;5094955;28;20031;-76
2021/03/01 09:43:25;;;;;;;28.98;16.80;;;;;;;;;;5094929;28;20028;-76
2021/03/01 09:45:51;;;;;;;28.13;16.95;;;;;;;;;;5094836;28;20423;-76
2021/03/01 09:48:19;;;;;;;27.45;16.77;;;;;;;;;;5094663;28;20523;-76
2021/03/01 09:50:45;;;;;;;24.52;15.50;;;;;;;;;;5094667;28;20040;-75
2021/03/01 09:53:11;;;;;;;24.20;15.18;;;;;;;;;;5094613;28;20065;-76
2021/03/01 09:55:37;;;;;;;23.52;13.98;;;;;;;;;;5094565;28;20110;-76
2021/03/01 09:58:33;;;;;;;21.42;13.88;;;;;;;;;;5094465;28;20060;-76
2021/03/01 10:01:11;;;;;;;24.85;13.90;;;;;;;;;;5094518;28;20032;-77
2021/03/01 10:03:42;;;;;;;21.38;14.02;;;;;;;;;;5094338;28;20040;-76
2021/03/01 10:06:09;;;;;;;22.52;13.70;;;;;;;;;;5094666;28;20036;-76
2021/03/01 10:08:35;;;;;;;18.65;13.00;;;;;;;;;;5094322;28;20452;-75
2021/03/01 10:11:01;;;;;;;22.35;12.68;;;;;;;;;;5076009;28;20067;-75
2021/03/01 10:13:32;;;;;;;24.13;14.13;;;;;;;;;;5076875;28;20039;-75
2021/03/01 10:15:57;;;;;;;23.33;14.85;;;;;;;;;;5094214;28;20046;-76
2021/03/01 10:18:27;;;;;;;26.67;14.13;;;;;;;;;;5094315;28;20039;-75
2021/03/01 10:20:58;;;;;;;18.00;12.23;;;;;;;;;;5081864;28;20042;-78
2021/03/01 10:23:35;;;;;;;25.60;14.40;;;;;;;;;;5102384;28;20040;-77
2021/03/01 10:26:08;;;;;;;20.02;12.57;;;;;;;;;;5100621;28;20036;-76
2021/03/01 10:28:36;;;;;;;20.02;12.13;;;;;;;;;;5105602;28;20066;-77
2021/03/01 10:31:12;;;;;;;23.88;12.93;;;;;;;;;;5105581;28;20381;-78
2021/03/01 10:33:57;;;;;;;23.48;12.88;;;;;;;;;;5108474;28;20039;-78
2021/03/01 10:36:32;;;;;;;22.08;13.30;;;;;;;;;;5100162;28;20062;-75
2021/03/01 10:39:30;;;;;;;22.85;13.93;;;;;;;;;;5077176;28;20040;-76
2021/03/01 10:41:58;;;;;;;19.23;11.43;;;;;;;;;;5064108;28;20048;-75
2021/03/01 10:44:34;;;;;;;18.92;11.82;;;;;;;;;;5093972;28;20481;-76
2021/03/01 10:47:16;;;;;;;15.38;10.27;;;;;;;;;;5094394;28;20120;-77
2021/03/01 10:49:43;;;;;;;18.20;11.52;;;;;;;;;;5093919;28;20038;-72
2021/03/01 10:52:09;;;;;;;23.63;11.73;;;;;;;;;;5094067;28;20063;-75
2021/03/01 10:54:38;;;;;;;14.20;8.52;;;;;;;;;;5075713;28;20038;-75
2021/03/01 10:57:04;;;;;;;12.68;7.78;;;;;;;;;;5093601;28;20044;-75
2021/03/01 10:59:29;;;;;;;13.32;8.77;;;;;;;;;;5093538;28;20036;-73
2021/03/01 11:01:55;;;;;;;15.00;8.75;;;;;;;;;;5093750;28;20032;-76
2021/03/01 11:04:21;;;;;;;17.02;9.75;;;;;;;;;;5093720;28;20036;-76
2021/03/01 11:06:47;;;;;;;16.75;10.02;;;;;;;;;;5093879;28;20031;-76
2021/03/01 11:09:13;;;;;;;17.02;9.80;;;;;;;;;;5093330;28;20035;-77
2021/03/01 11:11:39;;;;;;;14.65;9.27;;;;;;;;;;5092816;28;20028;-76
2021/03/01 11:14:07;;;;;;;14.52;8.82;;;;;;;;;;5094400;28;20040;-76
2021/03/01 11:16:32;;;;;;;13.82;8.40;;;;;;;;;;5095028;28;20036;-77
2021/03/01 11:18:58;;;;;;;14.43;9.15;;;;;;;;;;5095896;28;20035;-77
2021/03/01 11:21:24;;;;;;;16.23;10.20;;;;;;;;;;5094837;28;20036;-76
2021/03/01 11:23:49;;;;;;;13.43;9.05;;;;;;;;;;5093076;28;20032;-75
2021/03/01 11:26:14;;;;;;;18.70;9.93;;;;;;;;;;5093270;28;20043;-76
2021/03/01 11:28:43;;;;;;;11.20;7.68;;;;;;;;;;5074424;28;20439;-74
2021/03/01 11:31:10;;;;;;;13.68;8.45;;;;;;;;;;5093285;28;20036;-75
2021/03/01 11:33:36;;;;;;;12.63;8.15;;;;;;;;;;5093098;28;20140;-75
2021/03/01 11:36:03;;;;;;;12.98;8.70;;;;;;;;;;5074849;28;20496;-74
2021/03/01 11:38:29;;;;;;;13.27;9.05;;;;;;;;;;5075134;28;20385;-74
2021/03/01 11:40:55;;;;;;;12.50;8.65;;;;;;;;;;5097137;28;20032;-73
2021/03/01 11:43:21;;;;;;;16.42;9.25;;;;;;;;;;5097234;28;20486;-74
2021/03/01 11:45:46;;;;;;;10.50;7.97;;;;;;;;;;5097710;28;20031;-74
2021/03/01 11:48:14;;;;;;;14.82;9.40;;;;;;;;;;5097747;28;20093;-74
2021/03/01 11:50:43;;;;;;;14.30;9.52;;;;;;;;;;5096921;28;20482;-74
2021/03/01 11:53:09;;;;;;;13.13;8.35;;;;;;;;;;5097433;28;20028;-74
2021/03/01 11:55:35;;;;;;;13.45;9.18;;;;;;;;;;5097212;28;20039;-73
2021/03/01 11:58:00;;;;;;;12.52;8.57;;;;;;;;;;5062289;28;20389;-73
2021/03/01 12:00:26;;;;;;;11.98;8.10;;;;;;;;;;5097302;28;20031;-74
2021/03/01 12:02:51;;;;;;;18.52;11.50;;;;;;;;;;5097270;28;20151;-74
2021/03/01 12:05:17;;;;;;;19.55;10.63;;;;;;;;;;5097218;28;20055;-74
2021/03/01 12:07:42;;;;;;;11.60;8.15;;;;;;;;;;5079028;28;20454;-74
2021/03/01 12:10:08;;;;;;;14.15;7.80;;;;;;;;;;5096303;28;20127;-73
2021/03/01 12:12:34;;;;;;;13.45;8.75;;;;;;;;;;5097009;28;20082;-73
2021/03/01 12:14:59;;;;;;;11.65;7.90;;;;;;;;;;5078695;28;20028;-74
2021/03/01 12:17:25;;;;;;;11.05;8.00;;;;;;;;;;5096951;28;20101;-74
2021/03/01 12:19:50;;;;;;;10.90;7.30;;;;;;;;;;5096145;28;20535;-74
2021/03/01 12:22:16;;;;;;;10.13;6.78;;;;;;;;;;5096856;28;20027;-74
2021/03/01 12:24:41;;;;;;;8.95;6.60;;;;;;;;;;5096403;28;20085;-74
2021/03/01 12:27:07;;;;;;;8.02;6.07;;;;;;;;;;5096523;28;20058;-74
2021/03/01 12:29:32;;;;;;;10.20;6.57;;;;;;;;;;5096092;28;20079;-74
2021/03/01 12:31:57;;;;;;;9.52;7.25;;;;;;;;;;5095499;28;20126;-74
2021/03/01 12:34:23;;;;;;;8.35;6.10;;;;;;;;;;5096157;28;20044;-74
2021/03/01 12:36:48;;;;;;;8.73;6.65;;;;;;;;;;5096022;28;20197;-74
2021/03/01 12:39:14;;;;;;;7.15;5.70;;;;;;;;;;5096134;28;20032;-73
2021/03/01 12:41:39;;;;;;;9.68;6.45;;;;;;;;;;5096305;28;20112;-73
2021/03/01 12:44:05;;;;;;;9.82;6.43;;;;;;;;;;5096225;28;20412;-74
2021/03/01 12:46:31;;;;;;;10.23;6.68;;;;;;;;;;5096310;28;20494;-74
2021/03/01 12:48:56;;;;;;;9.45;6.40;;;;;;;;;;5095630;28;20032;-74
2021/03/01 12:51:21;;;;;;;8.77;6.63;;;;;;;;;;5094926;28;20070;-74
2021/03/01 12:53:47;;;;;;;7.72;5.75;;;;;;;;;;5077691;28;20504;-73
2021/03/01 12:56:12;;;;;;;8.27;5.75;;;;;;;;;;5096064;28;20044;-74
2021/03/01 12:58:38;;;;;;;8.13;5.72;;;;;;;;;;5096185;28;20039;-74
2021/03/01 13:01:04;;;;;;;8.15;5.95;;;;;;;;;;5095496;28;20461;-74
2021/03/01 13:03:29;;;;;;;8.88;6.70;;;;;;;;;;5095870;28;20028;-74
2021/03/01 13:05:57;;;;;;;7.80;6.13;;;;;;;;;;5095852;28;20039;-74
2021/03/01 13:08:23;;;;;;;7.35;5.65;;;;;;;;;;5095524;28;20028;-74
2021/03/01 13:10:48;;;;;;;7.25;5.45;;;;;;;;;;5095412;28;20097;-74
2021/03/01 13:13:15;;;;;;;7.93;6.25;;;;;;;;;;5077752;28;20059;-74
2021/03/01 13:15:40;;;;;;;8.68;5.53;;;;;;;;;;5095669;28;20036;-74
2021/03/01 13:18:06;;;;;;;6.20;4.88;;;;;;;;;;5077332;28;20504;-74
2021/03/01 13:20:31;;;;;;;8.35;5.97;;;;;;;;;;5076905;28;20032;-74
2021/03/01 13:22:56;;;;;;;7.93;6.15;;;;;;;;;;5095300;28;20043;-74
2021/03/01 13:25:22;;;;;;;8.50;5.57;;;;;;;;;;5095149;28;20040;-74
2021/03/01 13:27:47;;;;;;;7.93;5.25;;;;;;;;;;5077151;28;20105;-74
2021/03/01 13:30:13;;;;;;;7.70;5.47;;;;;;;;;;5095179;28;20082;-74
2021/03/01 13:32:39;;;;;;;8.50;5.75;;;;;;;;;;5060402;28;20035;-74
2021/03/01 13:35:05;;;;;;;10.25;5.97;;;;;;;;;;5095249;28;20557;-74
2021/03/01 13:37:31;;;;;;;8.63;5.43;;;;;;;;;;5094884;28;20059;-74
2021/03/01 13:39:57;;;;;;;7.53;5.50;;;;;;;;;;5094890;28;20028;-74
2021/03/01 13:42:22;;;;;;;8.57;5.70;;;;;;;;;;5095049;28;20040;-74
2021/03/01 13:44:47;;;;;;;7.50;5.25;;;;;;;;;;5094868;28;20478;-74
2021/03/01 13:47:13;;;;;;;7.13;5.32;;;;;;;;;;5093998;28;20032;-74
2021/03/01 13:49:38;;;;;;;7.43;5.35;;;;;;;;;;5094760;28;20040;-74
2021/03/01 13:52:04;;;;;;;10.82;5.68;;;;;;;;;;5094754;28;20032;-74
2021/03/01 13:54:29;;;;;;;8.60;6.45;;;;;;;;;;5094576;28;20485;-76
2021/03/01 13:56:55;;;;;;;9.00;5.95;;;;;;;;;;5094918;28;20042;-74
2021/03/01 13:59:21;;;;;;;7.15;5.20;;;;;;;;;;5095119;28;20036;-75
2021/03/01 14:01:46;;;;;;;9.88;5.43;;;;;;;;;;5076221;28;20039;-74
2021/03/01 14:04:12;;;;;;;10.30;4.57;;;;;;;;;;5094797;28;20036;-74
2021/03/01 14:06:38;;;;;;;7.18;4.43;;;;;;;;;;5094908;28;20040;-74
2021/03/01 14:09:05;;;;;;;6.75;4.90;;;;;;;;;;5094627;28;20032;-74
2021/03/01 14:11:30;;;;;;;7.15;4.85;;;;;;;;;;5094506;28;20115;-74
2021/03/01 14:13:56;;;;;;;7.15;4.75;;;;;;;;;;5094406;28;20063;-74
2021/03/01 14:16:21;;;;;;;9.10;4.22;;;;;;;;;;5094439;28;20467;-74
2021/03/01 16:10:00;;;;;;;9.15;4.53;;;;;;;;;;5111082;27;20343;-72
2021/03/01 16:12:25;;;;;;;7.75;5.60;;;;;;;;;;5111492;28;20047;-73
2021/03/01 16:14:51;;;;;;;5.05;3.95;;;;;;;;;;5111072;28;20036;-72
2021/03/01 16:17:17;;;;;;;9.88;5.70;;;;;;;;;;5110443;28;20074;-73
2021/03/01 16:19:42;;;;;;;6.07;4.32;;;;;;;;;;5111252;28;20059;-72